sensor_id;sensor_type;location;lat;lon;timestamp;temperature;humidity
16785;DHT22;8509;52.178;5.404;2023-12-20T00:00:56;6.30;99.90
16785;DHT22;8509;52.178;5.404;2023-12-20T00:03:21;6.30;99.90
16785;DHT22;8509;52.178;5.404;2023-12-20T00:05:47;6.30;99.90
16785;DHT22;8509;52.178;5.404;2023-12-20T00:08:13;6.20;99.90
16785;DHT22;8509;52.178;5.404;2023-12-20T00:10:39;6.20;99.90
16785;DHT22;8509;52.178;5.404;2023-12-20T00:13:04;6.20;99.90
16785;DHT22;8509;52.178;5.404;2023-12-20T00:15:30;6.10;99.90
16785;DHT22;8509;52.178;5.404;2023-12-20T00:17:56;6.20;99.90
16785;DHT22;8509;52.178;5.404;2023-12-20T00:20:21;6.20;99.90
16785;DHT22;8509;52.178;5.404;2023-12-20T00:22:47;6.10;99.90
16785;DHT22;8509;52.178;5.404;2023-12-20T00:25:13;6.10;99.90
16785;DHT22;8509;52.178;5.404;2023-12-20T00:27:38;6.10;99.90
16785;DHT22;8509;52.178;5.404;2023-12-20T00:30:04;6.10;99.90
16785;DHT22;8509;52.178;5.404;2023-12-20T00:32:30;6.10;99.90
16785;DHT22;8509;52.178;5.404;2023-12-20T00:34:55;6.00;99.90
16785;DHT22;8509;52.178;5.404;2023-12-20T00:37:21;6.00;99.90
16785;DHT22;8509;52.178;5.404;2023-12-20T00:39:47;6.00;99.90
16785;DHT22;8509;52.178;5.404;2023-12-20T00:42:13;6.10;99.90
16785;DHT22;8509;52.178;5.404;2023-12-20T00:44:39;5.90;99.90
16785;DHT22;8509;52.178;5.404;2023-12-20T00:47:04;5.80;99.90
16785;DHT22;8509;52.178;5.404;2023-12-20T00:49:30;5.90;99.90
16785;DHT22;8509;52.178;5.404;2023-12-20T00:51:55;5.90;99.90
16785;DHT22;8509;52.178;5.404;2023-12-20T00:54:21;5.90;99.90
16785;DHT22;8509;52.178;5.404;2023-12-20T00:56:47;5.90;99.90
16785;DHT22;8509;52.178;5.404;2023-12-20T00:59:13;6.00;99.90
16785;DHT22;8509;52.178;5.404;2023-12-20T01:01:38;5.90;99.90
16785;DHT22;8509;52.178;5.404;2023-12-20T01:04:04;5.90;99.90
16785;DHT22;8509;52.178;5.404;2023-12-20T01:06:30;5.90;99.90
16785;DHT22;8509;52.178;5.404;2023-12-20T01:08:55;5.90;99.90
16785;DHT22;8509;52.178;5.404;2023-12-20T01:11:21;6.00;99.90
16785;DHT22;8509;52.178;5.404;2023-12-20T01:13:47;5.90;99.90
16785;DHT22;8509;52.178;5.404;2023-12-20T01:16:12;5.80;99.90
16785;DHT22;8509;52.178;5.404;2023-12-20T01:18:38;5.90;99.90
16785;DHT22;8509;52.178;5.404;2023-12-20T01:21:04;5.70;99.90
16785;DHT22;8509;52.178;5.404;2023-12-20T01:23:31;5.80;99.90
16785;DHT22;8509;52.178;5.404;2023-12-20T01:25:57;5.70;99.90
16785;DHT22;8509;52.178;5.404;2023-12-20T01:28:25;5.70;99.90
16785;DHT22;8509;52.178;5.404;2023-12-20T01:30:51;5.90;99.90
16785;DHT22;8509;52.178;5.404;2023-12-20T01:33:16;5.90;99.90
16785;DHT22;8509;52.178;5.404;2023-12-20T01:35:42;5.90;99.90
16785;DHT22;8509;52.178;5.404;2023-12-20T01:38:10;5.90;99.90
16785;DHT22;8509;52.178;5.404;2023-12-20T01:40:36;6.00;99.90
16785;DHT22;8509;52.178;5.404;2023-12-20T01:43:11;6.10;99.90
16785;DHT22;8509;52.178;5.404;2023-12-20T01:45:38;6.20;99.90
16785;DHT22;8509;52.178;5.404;2023-12-20T01:48:05;6.20;99.90
16785;DHT22;8509;52.178;5.404;2023-12-20T01:50:31;6.10;99.90
16785;DHT22;8509;52.178;5.404;2023-12-20T01:53:01;6.10;99.90
16785;DHT22;8509;52.178;5.404;2023-12-20T01:55:29;6.10;99.90
16785;DHT22;8509;52.178;5.404;2023-12-20T01:57:57;6.20;99.90
16785;DHT22;8509;52.178;5.404;2023-12-20T02:00:24;6.10;99.90
16785;DHT22;8509;52.178;5.404;2023-12-20T02:02:53;6.20;99.90
16785;DHT22;8509;52.178;5.404;2023-12-20T02:05:20;6.20;99.90
16785;DHT22;8509;52.178;5.404;2023-12-20T02:07:46;6.20;99.90
16785;DHT22;8509;52.178;5.404;2023-12-20T02:10:12;6.20;99.90
16785;DHT22;8509;52.178;5.404;2023-12-20T02:12:38;6.10;99.90
16785;DHT22;8509;52.178;5.404;2023-12-20T02:15:04;6.40;99.90
16785;DHT22;8509;52.178;5.404;2023-12-20T02:17:32;6.30;99.90
16785;DHT22;8509;52.178;5.404;2023-12-20T02:19:58;6.30;99.90
16785;DHT22;8509;52.178;5.404;2023-12-20T02:22:23;6.30;99.90
16785;DHT22;8509;52.178;5.404;2023-12-20T02:24:49;6.40;99.90
16785;DHT22;8509;52.178;5.404;2023-12-20T02:27:15;6.50;99.90
16785;DHT22;8509;52.178;5.404;2023-12-20T02:29:42;6.40;99.90
16785;DHT22;8509;52.178;5.404;2023-12-20T02:32:10;6.40;99.90
16785;DHT22;8509;52.178;5.404;2023-12-20T02:34:37;6.40;99.90
16785;DHT22;8509;52.178;5.404;2023-12-20T02:37:03;6.30;99.90
16785;DHT22;8509;52.178;5.404;2023-12-20T02:39:29;6.30;99.90
16785;DHT22;8509;52.178;5.404;2023-12-20T02:41:55;6.30;99.90
16785;DHT22;8509;52.178;5.404;2023-12-20T02:44:21;6.40;99.90
16785;DHT22;8509;52.178;5.404;2023-12-20T02:46:46;6.10;99.90
16785;DHT22;8509;52.178;5.404;2023-12-20T02:49:12;6.40;99.90
16785;DHT22;8509;52.178;5.404;2023-12-20T02:51:38;6.30;99.90
16785;DHT22;8509;52.178;5.404;2023-12-20T02:54:04;6.20;99.90
16785;DHT22;8509;52.178;5.404;2023-12-20T02:56:31;6.30;99.90
16785;DHT22;8509;52.178;5.404;2023-12-20T02:58:59;6.30;99.90
16785;DHT22;8509;52.178;5.404;2023-12-20T03:01:25;6.30;99.90
16785;DHT22;8509;52.178;5.404;2023-12-20T03:03:58;6.20;99.90
16785;DHT22;8509;52.178;5.404;2023-12-20T03:06:24;6.20;99.90
16785;DHT22;8509;52.178;5.404;2023-12-20T03:08:57;6.20;99.90
16785;DHT22;8509;52.178;5.404;2023-12-20T03:11:28;6.30;99.90
16785;DHT22;8509;52.178;5.404;2023-12-20T03:13:57;6.20;99.90
16785;DHT22;8509;52.178;5.404;2023-12-20T03:16:22;6.30;99.90
16785;DHT22;8509;52.178;5.404;2023-12-20T03:18:51;6.30;99.90
16785;DHT22;8509;52.178;5.404;2023-12-20T03:21:17;6.30;99.90
16785;DHT22;8509;52.178;5.404;2023-12-20T03:23:43;6.30;99.90
16785;DHT22;8509;52.178;5.404;2023-12-20T03:26:09;6.30;99.90
16785;DHT22;8509;52.178;5.404;2023-12-20T03:28:36;6.30;99.90
16785;DHT22;8509;52.178;5.404;2023-12-20T03:31:02;6.20;99.90
16785;DHT22;8509;52.178;5.404;2023-12-20T03:33:29;6.30;99.90
16785;DHT22;8509;52.178;5.404;2023-12-20T03:35:54;6.30;99.90
16785;DHT22;8509;52.178;5.404;2023-12-20T03:38:21;6.40;99.90
16785;DHT22;8509;52.178;5.404;2023-12-20T03:40:47;6.40;99.90
16785;DHT22;8509;52.178;5.404;2023-12-20T03:43:15;6.50;99.90
16785;DHT22;8509;52.178;5.404;2023-12-20T03:45:41;6.50;99.90
16785;DHT22;8509;52.178;5.404;2023-12-20T03:48:07;6.50;99.90
16785;DHT22;8509;52.178;5.404;2023-12-20T03:50:35;6.40;99.90
16785;DHT22;8509;52.178;5.404;2023-12-20T03:53:01;6.40;99.90
16785;DHT22;8509;52.178;5.404;2023-12-20T03:55:26;6.40;99.90
16785;DHT22;8509;52.178;5.404;2023-12-20T03:57:52;6.30;99.90
16785;DHT22;8509;52.178;5.404;2023-12-20T04:00:18;6.30;99.90
16785;DHT22;8509;52.178;5.404;2023-12-20T04:02:43;6.30;99.90
16785;DHT22;8509;52.178;5.404;2023-12-20T04:05:09;6.40;99.90
16785;DHT22;8509;52.178;5.404;2023-12-20T04:07:36;6.60;99.90
16785;DHT22;8509;52.178;5.404;2023-12-20T04:10:02;6.50;99.90
16785;DHT22;8509;52.178;5.404;2023-12-20T04:12:31;6.60;99.90
16785;DHT22;8509;52.178;5.404;2023-12-20T04:15:04;6.60;99.90
16785;DHT22;8509;52.178;5.404;2023-12-20T04:17:34;6.70;99.90
16785;DHT22;8509;52.178;5.404;2023-12-20T04:20:00;6.70;99.90
16785;DHT22;8509;52.178;5.404;2023-12-20T04:22:28;6.80;99.90
16785;DHT22;8509;52.178;5.404;2023-12-20T04:24:54;6.70;99.90
16785;DHT22;8509;52.178;5.404;2023-12-20T04:27:22;6.80;99.90
16785;DHT22;8509;52.178;5.404;2023-12-20T04:29:48;6.80;99.90
16785;DHT22;8509;52.178;5.404;2023-12-20T04:32:13;6.80;99.90
16785;DHT22;8509;52.178;5.404;2023-12-20T04:34:39;6.90;99.90
16785;DHT22;8509;52.178;5.404;2023-12-20T04:37:06;6.90;99.90
16785;DHT22;8509;52.178;5.404;2023-12-20T04:39:32;7.00;99.90
16785;DHT22;8509;52.178;5.404;2023-12-20T04:42:01;7.00;99.90
16785;DHT22;8509;52.178;5.404;2023-12-20T04:44:29;7.10;99.90
16785;DHT22;8509;52.178;5.404;2023-12-20T04:47:00;7.10;99.90
16785;DHT22;8509;52.178;5.404;2023-12-20T04:49:25;7.10;99.90
16785;DHT22;8509;52.178;5.404;2023-12-20T04:51:51;7.10;99.90
16785;DHT22;8509;52.178;5.404;2023-12-20T04:54:17;7.10;99.90
16785;DHT22;8509;52.178;5.404;2023-12-20T04:56:45;7.10;99.90
16785;DHT22;8509;52.178;5.404;2023-12-20T04:59:10;7.30;99.90
16785;DHT22;8509;52.178;5.404;2023-12-20T05:01:38;7.20;99.90
16785;DHT22;8509;52.178;5.404;2023-12-20T05:04:04;7.20;99.90
16785;DHT22;8509;52.178;5.404;2023-12-20T05:06:29;7.20;99.90
16785;DHT22;8509;52.178;5.404;2023-12-20T05:08:58;7.20;99.90
16785;DHT22;8509;52.178;5.404;2023-12-20T05:11:23;7.10;99.90
16785;DHT22;8509;52.178;5.404;2023-12-20T05:13:51;7.10;99.90
16785;DHT22;8509;52.178;5.404;2023-12-20T05:16:17;7.20;99.90
16785;DHT22;8509;52.178;5.404;2023-12-20T05:18:47;7.30;99.90
16785;DHT22;8509;52.178;5.404;2023-12-20T05:21:13;7.30;99.90
16785;DHT22;8509;52.178;5.404;2023-12-20T05:23:39;7.30;99.90
16785;DHT22;8509;52.178;5.404;2023-12-20T05:26:04;7.50;99.90
16785;DHT22;8509;52.178;5.404;2023-12-20T05:28:30;7.40;99.90
16785;DHT22;8509;52.178;5.404;2023-12-20T05:30:56;7.30;99.90
16785;DHT22;8509;52.178;5.404;2023-12-20T05:33:21;7.30;99.90
16785;DHT22;8509;52.178;5.404;2023-12-20T05:35:50;7.30;99.90
16785;DHT22;8509;52.178;5.404;2023-12-20T05:38:15;7.40;99.90
16785;DHT22;8509;52.178;5.404;2023-12-20T05:40:42;7.40;99.90
16785;DHT22;8509;52.178;5.404;2023-12-20T05:43:07;7.20;99.90
16785;DHT22;8509;52.178;5.404;2023-12-20T05:45:33;7.40;99.90
16785;DHT22;8509;52.178;5.404;2023-12-20T05:47:59;7.50;99.90
16785;DHT22;8509;52.178;5.404;2023-12-20T05:50:25;7.50;99.90
16785;DHT22;8509;52.178;5.404;2023-12-20T05:52:53;7.50;99.90
16785;DHT22;8509;52.178;5.404;2023-12-20T05:55:19;7.40;99.90
16785;DHT22;8509;52.178;5.404;2023-12-20T05:57:45;7.40;99.90
16785;DHT22;8509;52.178;5.404;2023-12-20T06:00:14;7.60;99.90
16785;DHT22;8509;52.178;5.404;2023-12-20T06:02:40;7.40;99.90
16785;DHT22;8509;52.178;5.404;2023-12-20T06:05:06;7.40;99.90
16785;DHT22;8509;52.178;5.404;2023-12-20T06:07:34;7.40;99.90
16785;DHT22;8509;52.178;5.404;2023-12-20T06:10:02;7.50;99.90
16785;DHT22;8509;52.178;5.404;2023-12-20T06:12:30;7.50;99.90
16785;DHT22;8509;52.178;5.404;2023-12-20T06:14:58;7.50;99.90
16785;DHT22;8509;52.178;5.404;2023-12-20T06:17:24;7.40;99.90
16785;DHT22;8509;52.178;5.404;2023-12-20T06:19:52;7.60;99.90
16785;DHT22;8509;52.178;5.404;2023-12-20T06:22:20;7.50;99.90
16785;DHT22;8509;52.178;5.404;2023-12-20T06:24:45;7.50;99.90
16785;DHT22;8509;52.178;5.404;2023-12-20T06:27:16;7.50;99.90
16785;DHT22;8509;52.178;5.404;2023-12-20T06:29:47;7.50;99.90
16785;DHT22;8509;52.178;5.404;2023-12-20T06:32:12;7.50;99.90
16785;DHT22;8509;52.178;5.404;2023-12-20T06:34:40;7.50;99.90
16785;DHT22;8509;52.178;5.404;2023-12-20T06:37:08;7.70;99.90
16785;DHT22;8509;52.178;5.404;2023-12-20T06:39:34;7.50;99.90
16785;DHT22;8509;52.178;5.404;2023-12-20T06:42:02;7.50;99.90
16785;DHT22;8509;52.178;5.404;2023-12-20T06:44:30;7.60;99.90
16785;DHT22;8509;52.178;5.404;2023-12-20T06:46:57;7.60;99.90
16785;DHT22;8509;52.178;5.404;2023-12-20T06:49:23;7.60;99.90
16785;DHT22;8509;52.178;5.404;2023-12-20T06:51:48;7.60;99.90
16785;DHT22;8509;52.178;5.404;2023-12-20T06:54:14;7.70;99.90
16785;DHT22;8509;52.178;5.404;2023-12-20T06:56:40;7.60;99.90
16785;DHT22;8509;52.178;5.404;2023-12-20T06:59:06;7.60;99.90
16785;DHT22;8509;52.178;5.404;2023-12-20T07:01:32;7.80;99.90
16785;DHT22;8509;52.178;5.404;2023-12-20T07:03:57;7.70;99.90
16785;DHT22;8509;52.178;5.404;2023-12-20T07:06:23;7.60;99.90
16785;DHT22;8509;52.178;5.404;2023-12-20T07:08:51;7.60;99.90
16785;DHT22;8509;52.178;5.404;2023-12-20T07:11:17;7.70;99.90
16785;DHT22;8509;52.178;5.404;2023-12-20T07:13:43;7.70;99.90
16785;DHT22;8509;52.178;5.404;2023-12-20T07:16:09;7.60;99.90
16785;DHT22;8509;52.178;5.404;2023-12-20T07:18:34;7.70;99.90
16785;DHT22;8509;52.178;5.404;2023-12-20T07:21:00;7.80;99.90
16785;DHT22;8509;52.178;5.404;2023-12-20T07:23:25;7.80;99.90
16785;DHT22;8509;52.178;5.404;2023-12-20T07:25:52;7.70;99.90
16785;DHT22;8509;52.178;5.404;2023-12-20T07:28:17;7.70;99.90
16785;DHT22;8509;52.178;5.404;2023-12-20T07:30:43;7.80;99.90
16785;DHT22;8509;52.178;5.404;2023-12-20T07:33:09;7.80;99.90
16785;DHT22;8509;52.178;5.404;2023-12-20T07:35:35;7.80;99.90
16785;DHT22;8509;52.178;5.404;2023-12-20T07:38:00;7.80;99.90
16785;DHT22;8509;52.178;5.404;2023-12-20T07:40:27;7.80;99.90
16785;DHT22;8509;52.178;5.404;2023-12-20T07:42:53;7.80;99.90
16785;DHT22;8509;52.178;5.404;2023-12-20T07:45:18;7.80;99.90
16785;DHT22;8509;52.178;5.404;2023-12-20T07:47:44;7.80;99.90
16785;DHT22;8509;52.178;5.404;2023-12-20T07:50:10;7.70;99.90
16785;DHT22;8509;52.178;5.404;2023-12-20T07:52:35;7.90;99.90
16785;DHT22;8509;52.178;5.404;2023-12-20T07:55:01;7.90;99.90
16785;DHT22;8509;52.178;5.404;2023-12-20T07:57:30;7.80;99.90
16785;DHT22;8509;52.178;5.404;2023-12-20T07:59:56;7.80;99.90
16785;DHT22;8509;52.178;5.404;2023-12-20T08:02:21;7.90;99.90
16785;DHT22;8509;52.178;5.404;2023-12-20T08:04:47;7.90;99.90
16785;DHT22;8509;52.178;5.404;2023-12-20T08:07:13;8.10;99.90
16785;DHT22;8509;52.178;5.404;2023-12-20T08:09:38;8.00;99.90
16785;DHT22;8509;52.178;5.404;2023-12-20T08:12:06;8.00;99.90
16785;DHT22;8509;52.178;5.404;2023-12-20T08:14:32;8.00;99.90
16785;DHT22;8509;52.178;5.404;2023-12-20T08:16:58;8.00;99.90
16785;DHT22;8509;52.178;5.404;2023-12-20T08:19:24;8.00;99.90
16785;DHT22;8509;52.178;5.404;2023-12-20T08:21:49;8.10;99.90
16785;DHT22;8509;52.178;5.404;2023-12-20T08:24:15;8.10;99.90
16785;DHT22;8509;52.178;5.404;2023-12-20T08:26:41;8.10;99.90
16785;DHT22;8509;52.178;5.404;2023-12-20T08:29:06;8.10;99.90
16785;DHT22;8509;52.178;5.404;2023-12-20T08:31:32;8.10;99.90
16785;DHT22;8509;52.178;5.404;2023-12-20T08:33:58;8.10;99.90
16785;DHT22;8509;52.178;5.404;2023-12-20T08:36:23;8.10;99.90
16785;DHT22;8509;52.178;5.404;2023-12-20T08:38:49;8.10;99.90
16785;DHT22;8509;52.178;5.404;2023-12-20T08:41:16;8.10;99.90
16785;DHT22;8509;52.178;5.404;2023-12-20T08:43:42;8.10;99.90
16785;DHT22;8509;52.178;5.404;2023-12-20T08:46:08;8.10;99.90
16785;DHT22;8509;52.178;5.404;2023-12-20T08:48:37;8.20;99.90
16785;DHT22;8509;52.178;5.404;2023-12-20T08:51:04;8.20;99.90
16785;DHT22;8509;52.178;5.404;2023-12-20T08:53:29;8.20;99.90
16785;DHT22;8509;52.178;5.404;2023-12-20T08:55:55;8.10;99.90
16785;DHT22;8509;52.178;5.404;2023-12-20T08:58:21;8.20;99.90
16785;DHT22;8509;52.178;5.404;2023-12-20T09:00:47;8.20;99.90
16785;DHT22;8509;52.178;5.404;2023-12-20T09:03:12;8.20;99.90
16785;DHT22;8509;52.178;5.404;2023-12-20T09:05:38;8.20;99.90
16785;DHT22;8509;52.178;5.404;2023-12-20T09:08:04;8.10;99.90
16785;DHT22;8509;52.178;5.404;2023-12-20T09:10:30;8.10;99.90
16785;DHT22;8509;52.178;5.404;2023-12-20T09:12:55;8.10;99.90
16785;DHT22;8509;52.178;5.404;2023-12-20T09:15:26;8.20;99.90
16785;DHT22;8509;52.178;5.404;2023-12-20T09:17:52;8.20;99.90
16785;DHT22;8509;52.178;5.404;2023-12-20T09:20:18;8.20;99.90
16785;DHT22;8509;52.178;5.404;2023-12-20T09:22:44;8.20;99.90
16785;DHT22;8509;52.178;5.404;2023-12-20T09:25:10;8.30;99.90
16785;DHT22;8509;52.178;5.404;2023-12-20T09:27:41;8.30;99.90
16785;DHT22;8509;52.178;5.404;2023-12-20T09:30:07;8.30;99.90
16785;DHT22;8509;52.178;5.404;2023-12-20T09:32:33;8.40;99.90
16785;DHT22;8509;52.178;5.404;2023-12-20T09:34:58;8.50;99.90
16785;DHT22;8509;52.178;5.404;2023-12-20T09:37:26;8.40;99.90
16785;DHT22;8509;52.178;5.404;2023-12-20T09:39:52;8.30;99.90
16785;DHT22;8509;52.178;5.404;2023-12-20T09:42:24;8.50;99.90
16785;DHT22;8509;52.178;5.404;2023-12-20T09:44:55;8.60;99.90
16785;DHT22;8509;52.178;5.404;2023-12-20T09:47:23;8.60;99.90
16785;DHT22;8509;52.178;5.404;2023-12-20T09:49:50;8.70;99.90
16785;DHT22;8509;52.178;5.404;2023-12-20T09:52:18;8.60;99.90
16785;DHT22;8509;52.178;5.404;2023-12-20T09:54:44;8.50;99.90
16785;DHT22;8509;52.178;5.404;2023-12-20T09:57:11;8.40;99.90
16785;DHT22;8509;52.178;5.404;2023-12-20T09:59:36;8.40;99.90
16785;DHT22;8509;52.178;5.404;2023-12-20T10:02:03;8.60;99.90
16785;DHT22;8509;52.178;5.404;2023-12-20T10:04:32;8.60;99.90
16785;DHT22;8509;52.178;5.404;2023-12-20T10:07:02;8.70;99.90
16785;DHT22;8509;52.178;5.404;2023-12-20T10:09:31;8.70;99.90
16785;DHT22;8509;52.178;5.404;2023-12-20T10:11:58;8.80;99.90
16785;DHT22;8509;52.178;5.404;2023-12-20T10:14:24;8.80;99.90
16785;DHT22;8509;52.178;5.404;2023-12-20T10:16:50;8.90;99.90
16785;DHT22;8509;52.178;5.404;2023-12-20T10:19:19;8.90;99.90
16785;DHT22;8509;52.178;5.404;2023-12-20T10:21:45;8.90;99.90
16785;DHT22;8509;52.178;5.404;2023-12-20T10:24:17;9.00;99.90
16785;DHT22;8509;52.178;5.404;2023-12-20T10:26:42;9.20;99.90
16785;DHT22;8509;52.178;5.404;2023-12-20T10:29:08;9.30;99.90
16785;DHT22;8509;52.178;5.404;2023-12-20T10:31:35;9.10;99.90
16785;DHT22;8509;52.178;5.404;2023-12-20T10:34:02;9.20;99.90
16785;DHT22;8509;52.178;5.404;2023-12-20T10:36:32;9.10;99.90
16785;DHT22;8509;52.178;5.404;2023-12-20T10:38:59;9.00;99.90
16785;DHT22;8509;52.178;5.404;2023-12-20T10:41:32;9.00;99.90
16785;DHT22;8509;52.178;5.404;2023-12-20T10:44:02;9.20;99.90
16785;DHT22;8509;52.178;5.404;2023-12-20T10:46:30;9.30;99.90
16785;DHT22;8509;52.178;5.404;2023-12-20T10:48:58;9.30;99.90
16785;DHT22;8509;52.178;5.404;2023-12-20T10:51:25;9.40;99.90
16785;DHT22;8509;52.178;5.404;2023-12-20T10:53:56;9.50;99.90
16785;DHT22;8509;52.178;5.404;2023-12-20T10:56:22;9.60;99.90
16785;DHT22;8509;52.178;5.404;2023-12-20T10:58:49;9.60;99.90
16785;DHT22;8509;52.178;5.404;2023-12-20T11:01:16;9.70;99.90
16785;DHT22;8509;52.178;5.404;2023-12-20T11:03:49;9.90;99.90
16785;DHT22;8509;52.178;5.404;2023-12-20T11:06:36;9.80;99.90
16785;DHT22;8509;52.178;5.404;2023-12-20T11:09:24;9.70;99.90
16785;DHT22;8509;52.178;5.404;2023-12-20T11:14:50;9.70;99.90
16785;DHT22;8509;52.178;5.404;2023-12-20T11:17:16;9.80;99.90
16785;DHT22;8509;52.178;5.404;2023-12-20T11:22:25;9.70;99.90
16785;DHT22;8509;52.178;5.404;2023-12-20T11:24:52;9.70;99.90
16785;DHT22;8509;52.178;5.404;2023-12-20T11:27:19;9.70;99.90
16785;DHT22;8509;52.178;5.404;2023-12-20T11:29:58;9.90;99.90
16785;DHT22;8509;52.178;5.404;2023-12-20T11:34:57;9.90;99.90
16785;DHT22;8509;52.178;5.404;2023-12-20T11:37:29;10.00;99.90
16785;DHT22;8509;52.178;5.404;2023-12-20T11:40:04;10.20;99.90
16785;DHT22;8509;52.178;5.404;2023-12-20T11:42:40;10.30;99.90
16785;DHT22;8509;52.178;5.404;2023-12-20T11:45:18;10.30;99.90
16785;DHT22;8509;52.178;5.404;2023-12-20T11:47:49;10.20;99.90
16785;DHT22;8509;52.178;5.404;2023-12-20T11:50:22;10.20;99.90
16785;DHT22;8509;52.178;5.404;2023-12-20T11:52:48;10.20;99.90
16785;DHT22;8509;52.178;5.404;2023-12-20T11:55:15;10.20;99.90
16785;DHT22;8509;52.178;5.404;2023-12-20T11:57:41;10.10;99.90
16785;DHT22;8509;52.178;5.404;2023-12-20T12:00:08;10.10;99.90
16785;DHT22;8509;52.178;5.404;2023-12-20T12:02:34;10.20;99.90
16785;DHT22;8509;52.178;5.404;2023-12-20T12:05:00;10.20;99.90
16785;DHT22;8509;52.178;5.404;2023-12-20T12:07:26;10.20;99.90
16785;DHT22;8509;52.178;5.404;2023-12-20T12:09:52;10.10;99.90
16785;DHT22;8509;52.178;5.404;2023-12-20T12:12:18;10.10;99.90
16785;DHT22;8509;52.178;5.404;2023-12-20T12:14:45;10.00;99.90
16785;DHT22;8509;52.178;5.404;2023-12-20T12:17:13;10.00;99.90
16785;DHT22;8509;52.178;5.404;2023-12-20T12:19:40;10.00;99.90
16785;DHT22;8509;52.178;5.404;2023-12-20T12:22:07;10.00;99.90
16785;DHT22;8509;52.178;5.404;2023-12-20T12:24:34;10.00;99.90
16785;DHT22;8509;52.178;5.404;2023-12-20T12:26:59;10.00;99.90
16785;DHT22;8509;52.178;5.404;2023-12-20T12:29:25;10.20;99.90
16785;DHT22;8509;52.178;5.404;2023-12-20T12:31:51;9.90;99.90
16785;DHT22;8509;52.178;5.404;2023-12-20T12:34:17;10.10;99.90
16785;DHT22;8509;52.178;5.404;2023-12-20T12:36:43;10.20;99.90
16785;DHT22;8509;52.178;5.404;2023-12-20T12:39:12;10.00;99.90
16785;DHT22;8509;52.178;5.404;2023-12-20T12:41:41;10.00;99.90
16785;DHT22;8509;52.178;5.404;2023-12-20T12:44:06;9.90;99.90
16785;DHT22;8509;52.178;5.404;2023-12-20T12:46:32;9.90;99.90
16785;DHT22;8509;52.178;5.404;2023-12-20T12:48:58;9.90;99.90
16785;DHT22;8509;52.178;5.404;2023-12-20T12:51:24;9.90;99.90
16785;DHT22;8509;52.178;5.404;2023-12-20T12:53:49;9.90;99.90
16785;DHT22;8509;52.178;5.404;2023-12-20T12:56:15;9.90;99.90
16785;DHT22;8509;52.178;5.404;2023-12-20T12:58:41;10.00;99.90
16785;DHT22;8509;52.178;5.404;2023-12-20T13:01:07;10.00;99.90
16785;DHT22;8509;52.178;5.404;2023-12-20T13:03:33;9.90;99.90
16785;DHT22;8509;52.178;5.404;2023-12-20T13:05:59;9.90;99.90
16785;DHT22;8509;52.178;5.404;2023-12-20T13:08:25;9.90;99.90
16785;DHT22;8509;52.178;5.404;2023-12-20T13:10:51;9.80;99.90
16785;DHT22;8509;52.178;5.404;2023-12-20T13:13:17;9.80;99.90
16785;DHT22;8509;52.178;5.404;2023-12-20T13:15:42;9.80;99.90
16785;DHT22;8509;52.178;5.404;2023-12-20T13:18:16;9.80;99.90
16785;DHT22;8509;52.178;5.404;2023-12-20T13:20:42;9.80;99.90
16785;DHT22;8509;52.178;5.404;2023-12-20T13:23:08;9.70;99.90
16785;DHT22;8509;52.178;5.404;2023-12-20T13:25:33;9.70;99.90
16785;DHT22;8509;52.178;5.404;2023-12-20T13:27:59;9.70;99.90
16785;DHT22;8509;52.178;5.404;2023-12-20T13:30:25;9.70;99.90
16785;DHT22;8509;52.178;5.404;2023-12-20T13:32:50;9.80;99.90
16785;DHT22;8509;52.178;5.404;2023-12-20T13:35:16;9.80;99.90
16785;DHT22;8509;52.178;5.404;2023-12-20T13:37:42;9.80;99.90
16785;DHT22;8509;52.178;5.404;2023-12-20T13:40:08;9.80;99.90
16785;DHT22;8509;52.178;5.404;2023-12-20T13:42:33;9.70;99.90
16785;DHT22;8509;52.178;5.404;2023-12-20T13:44:59;9.70;99.90
16785;DHT22;8509;52.178;5.404;2023-12-20T13:47:25;9.70;99.90
16785;DHT22;8509;52.178;5.404;2023-12-20T13:49:51;9.60;99.90
16785;DHT22;8509;52.178;5.404;2023-12-20T13:52:16;9.60;99.90
16785;DHT22;8509;52.178;5.404;2023-12-20T13:54:42;9.70;99.90
16785;DHT22;8509;52.178;5.404;2023-12-20T13:57:08;9.70;99.90
16785;DHT22;8509;52.178;5.404;2023-12-20T13:59:34;9.80;99.90
16785;DHT22;8509;52.178;5.404;2023-12-20T14:02:00;9.70;99.90
16785;DHT22;8509;52.178;5.404;2023-12-20T14:04:28;9.80;99.90
16785;DHT22;8509;52.178;5.404;2023-12-20T14:06:54;9.80;99.90
16785;DHT22;8509;52.178;5.404;2023-12-20T14:09:20;9.70;99.90
16785;DHT22;8509;52.178;5.404;2023-12-20T14:11:45;9.70;99.90
16785;DHT22;8509;52.178;5.404;2023-12-20T14:14:11;9.70;99.90
16785;DHT22;8509;52.178;5.404;2023-12-20T14:16:37;9.70;99.90
16785;DHT22;8509;52.178;5.404;2023-12-20T14:19:03;9.60;99.90
16785;DHT22;8509;52.178;5.404;2023-12-20T14:21:29;9.40;99.90
16785;DHT22;8509;52.178;5.404;2023-12-20T14:23:55;9.50;99.90
16785;DHT22;8509;52.178;5.404;2023-12-20T14:26:20;9.40;99.90
16785;DHT22;8509;52.178;5.404;2023-12-20T14:28:46;9.50;99.90
16785;DHT22;8509;52.178;5.404;2023-12-20T14:31:11;9.50;99.90
16785;DHT22;8509;52.178;5.404;2023-12-20T14:33:37;9.50;99.90
16785;DHT22;8509;52.178;5.404;2023-12-20T14:36:05;9.60;99.90
16785;DHT22;8509;52.178;5.404;2023-12-20T14:38:31;9.60;99.90
16785;DHT22;8509;52.178;5.404;2023-12-20T14:40:57;9.60;99.90
16785;DHT22;8509;52.178;5.404;2023-12-20T14:43:23;9.80;99.90
16785;DHT22;8509;52.178;5.404;2023-12-20T14:45:49;9.60;99.90
16785;DHT22;8509;52.178;5.404;2023-12-20T14:48:16;9.60;99.90
16785;DHT22;8509;52.178;5.404;2023-12-20T14:50:42;9.70;99.90
16785;DHT22;8509;52.178;5.404;2023-12-20T14:53:08;9.60;99.90
16785;DHT22;8509;52.178;5.404;2023-12-20T14:55:33;9.60;99.90
16785;DHT22;8509;52.178;5.404;2023-12-20T14:57:59;9.60;99.90
16785;DHT22;8509;52.178;5.404;2023-12-20T15:00:26;9.60;99.90
16785;DHT22;8509;52.178;5.404;2023-12-20T15:02:52;9.60;99.90
16785;DHT22;8509;52.178;5.404;2023-12-20T15:05:19;9.60;99.90
16785;DHT22;8509;52.178;5.404;2023-12-20T15:07:45;9.60;99.90
16785;DHT22;8509;52.178;5.404;2023-12-20T15:10:13;9.50;99.90
16785;DHT22;8509;52.178;5.404;2023-12-20T15:12:39;9.50;99.90
16785;DHT22;8509;52.178;5.404;2023-12-20T15:15:05;9.50;99.90
16785;DHT22;8509;52.178;5.404;2023-12-20T15:17:31;9.50;99.90
16785;DHT22;8509;52.178;5.404;2023-12-20T15:19:57;9.50;99.90
16785;DHT22;8509;52.178;5.404;2023-12-20T15:22:22;9.50;99.90
16785;DHT22;8509;52.178;5.404;2023-12-20T15:24:49;9.50;99.90
16785;DHT22;8509;52.178;5.404;2023-12-20T15:27:16;9.50;99.90
16785;DHT22;8509;52.178;5.404;2023-12-20T15:29:43;9.40;99.90
16785;DHT22;8509;52.178;5.404;2023-12-20T15:32:09;9.40;99.90
16785;DHT22;8509;52.178;5.404;2023-12-20T15:34:34;9.40;99.90
16785;DHT22;8509;52.178;5.404;2023-12-20T15:37:00;9.40;99.90
16785;DHT22;8509;52.178;5.404;2023-12-20T15:39:26;9.50;99.90
16785;DHT22;8509;52.178;5.404;2023-12-20T15:41:51;9.40;99.90
16785;DHT22;8509;52.178;5.404;2023-12-20T15:44:17;9.40;99.90
16785;DHT22;8509;52.178;5.404;2023-12-20T15:46:43;9.30;99.90
16785;DHT22;8509;52.178;5.404;2023-12-20T15:49:09;9.30;99.90
16785;DHT22;8509;52.178;5.404;2023-12-20T15:51:37;9.30;99.90
16785;DHT22;8509;52.178;5.404;2023-12-20T15:54:02;9.30;99.90
16785;DHT22;8509;52.178;5.404;2023-12-20T15:56:32;9.30;99.90
16785;DHT22;8509;52.178;5.404;2023-12-20T15:58:58;9.30;99.90
16785;DHT22;8509;52.178;5.404;2023-12-20T16:01:25;9.20;99.90
16785;DHT22;8509;52.178;5.404;2023-12-20T16:03:50;9.20;99.90